sensor_id;sensor_type;location;lat;lon;timestamp;pressure;altitude;pressure_sealevel;temperature;humidity
45763;BME280;37512;52.408;13.356;2023-06-14T00:02:12;101243.16;;;14.05;100.00
45763;BME280;37512;52.408;13.356;2023-06-14T00:06:14;101247.69;;;14.13;100.00
45763;BME280;37512;52.408;13.356;2023-06-14T00:10:15;101247.69;;;14.13;100.00
45763;BME280;37512;52.408;13.356;2023-06-14T00:14:18;101238.66;;;13.70;100.00
45763;BME280;37512;52.408;13.356;2023-06-14T00:18:21;101248.38;;;13.56;100.00
45763;BME280;37512;52.408;13.356;2023-06-14T00:22:25;101242.78;;;13.79;100.00
45763;BME280;37512;52.408;13.356;2023-06-14T00:26:27;101239.28;;;13.86;100.00
45763;BME280;37512;52.408;13.356;2023-06-14T00:30:28;101237.16;;;13.76;100.00
45763;BME280;37512;52.408;13.356;2023-06-14T00:34:32;101240.88;;;13.60;100.00
45763;BME280;37512;52.408;13.356;2023-06-14T00:38:34;101245.56;;;13.79;100.00
45763;BME280;37512;52.408;13.356;2023-06-14T00:42:36;101241.22;;;13.82;100.00
45763;BME280;37512;52.408;13.356;2023-06-14T00:46:37;101238.81;;;13.11;100.00
45763;BME280;37512;52.408;13.356;2023-06-14T00:50:39;101247.44;;;13.06;100.00
45763;BME280;37512;52.408;13.356;2023-06-14T00:54:43;101249.50;;;13.29;100.00
45763;BME280;37512;52.408;13.356;2023-06-14T00:58:45;101248.22;;;13.26;100.00
45763;BME280;37512;52.408;13.356;2023-06-14T01:02:46;101244.78;;;13.33;100.00
45763;BME280;37512;52.408;13.356;2023-06-14T01:07:02;101243.63;;;13.14;100.00
45763;BME280;37512;52.408;13.356;2023-06-14T01:11:26;101240.19;;;13.21;100.00
45763;BME280;37512;52.408;13.356;2023-06-14T01:15:30;101247.78;;;13.24;100.00
45763;BME280;37512;52.408;13.356;2023-06-14T01:19:33;101251.81;;;13.27;100.00
45763;BME280;37512;52.408;13.356;2023-06-14T01:23:35;101243.50;;;13.07;100.00
45763;BME280;37512;52.408;13.356;2023-06-14T01:27:37;101243.41;;;13.23;100.00
45763;BME280;37512;52.408;13.356;2023-06-14T01:31:38;101238.28;;;13.06;100.00
45763;BME280;37512;52.408;13.356;2023-06-14T01:35:45;101241.06;;;13.25;100.00
45763;BME280;37512;52.408;13.356;2023-06-14T01:39:48;101242.44;;;13.15;100.00
45763;BME280;37512;52.408;13.356;2023-06-14T01:43:52;101236.19;;;12.99;100.00
45763;BME280;37512;52.408;13.356;2023-06-14T01:47:54;101237.63;;;12.93;100.00
45763;BME280;37512;52.408;13.356;2023-06-14T01:51:56;101243.50;;;13.07;100.00
45763;BME280;37512;52.408;13.356;2023-06-14T01:55:57;101234.28;;;12.84;100.00
45763;BME280;37512;52.408;13.356;2023-06-14T01:59:59;101235.03;;;13.00;100.00
45763;BME280;37512;52.408;13.356;2023-06-14T02:04:01;101241.75;;;12.99;100.00
45763;BME280;37512;52.408;13.356;2023-06-14T02:08:03;101256.59;;;12.64;100.00
45763;BME280;37512;52.408;13.356;2023-06-14T02:12:05;101260.00;;;12.77;100.00
45763;BME280;37512;52.408;13.356;2023-06-14T02:16:06;101250.03;;;12.56;100.00
45763;BME280;37512;52.408;13.356;2023-06-14T02:20:09;101248.13;;;12.61;100.00
45763;BME280;37512;52.408;13.356;2023-06-14T02:24:10;101255.41;;;12.65;100.00
45763;BME280;37512;52.408;13.356;2023-06-14T02:28:12;101252.34;;;12.70;100.00
45763;BME280;37512;52.408;13.356;2023-06-14T02:32:14;101251.16;;;12.71;100.00
45763;BME280;37512;52.408;13.356;2023-06-14T02:36:15;101254.50;;;12.61;100.00
45763;BME280;37512;52.408;13.356;2023-06-14T02:40:17;101258.38;;;12.37;100.00
45763;BME280;37512;52.408;13.356;2023-06-14T02:44:19;101254.66;;;12.29;100.00
45763;BME280;37512;52.408;13.356;2023-06-14T02:48:20;101261.97;;;12.38;100.00
45763;BME280;37512;52.408;13.356;2023-06-14T02:52:22;101258.41;;;12.56;100.00
45763;BME280;37512;52.408;13.356;2023-06-14T02:56:24;101262.41;;;12.40;100.00
45763;BME280;37512;52.408;13.356;2023-06-14T03:00:27;101260.69;;;12.51;100.00
45763;BME280;37512;52.408;13.356;2023-06-14T03:04:31;101262.56;;;12.27;100.00
45763;BME280;37512;52.408;13.356;2023-06-14T03:08:38;101267.56;;;12.02;100.00
45763;BME280;37512;52.408;13.356;2023-06-14T03:12:40;101264.19;;;12.12;100.00
45763;BME280;37512;52.408;13.356;2023-06-14T03:16:42;101263.00;;;12.49;100.00
45763;BME280;37512;52.408;13.356;2023-06-14T03:20:44;101266.75;;;12.56;100.00
45763;BME280;37512;52.408;13.356;2023-06-14T03:24:46;101260.59;;;12.47;100.00
45763;BME280;37512;52.408;13.356;2023-06-14T03:28:48;101265.06;;;12.52;100.00
45763;BME280;37512;52.408;13.356;2023-06-14T03:32:51;101270.91;;;12.47;100.00
45763;BME280;37512;52.408;13.356;2023-06-14T03:36:54;101269.16;;;12.39;100.00
45763;BME280;37512;52.408;13.356;2023-06-14T03:40:56;101278.91;;;12.48;100.00
45763;BME280;37512;52.408;13.356;2023-06-14T03:44:57;101284.13;;;12.50;100.00
45763;BME280;37512;52.408;13.356;2023-06-14T03:48:59;101283.72;;;12.32;100.00
45763;BME280;37512;52.408;13.356;2023-06-14T03:53:01;101281.59;;;12.25;100.00
45763;BME280;37512;52.408;13.356;2023-06-14T03:57:03;101284.34;;;12.61;100.00
45763;BME280;37512;52.408;13.356;2023-06-14T04:01:04;101287.00;;;12.73;100.00
45763;BME280;37512;52.408;13.356;2023-06-14T04:05:08;101282.78;;;12.44;100.00
45763;BME280;37512;52.408;13.356;2023-06-14T04:09:10;101291.44;;;12.58;100.00
45763;BME280;37512;52.408;13.356;2023-06-14T04:13:11;101293.59;;;12.65;100.00
45763;BME280;37512;52.408;13.356;2023-06-14T04:17:14;101289.56;;;12.82;100.00
45763;BME280;37512;52.408;13.356;2023-06-14T04:21:16;101300.31;;;12.44;100.00
45763;BME280;37512;52.408;13.356;2023-06-14T04:25:17;101297.22;;;12.49;100.00
45763;BME280;37512;52.408;13.356;2023-06-14T04:29:24;101304.50;;;12.93;100.00
45763;BME280;37512;52.408;13.356;2023-06-14T04:33:27;101296.59;;;12.95;100.00
45763;BME280;37512;52.408;13.356;2023-06-14T04:37:29;101297.03;;;13.16;100.00
45763;BME280;37512;52.408;13.356;2023-06-14T04:41:31;101293.94;;;13.41;100.00
45763;BME280;37512;52.408;13.356;2023-06-14T04:45:33;101291.88;;;13.38;100.00
45763;BME280;37512;52.408;13.356;2023-06-14T04:49:34;101299.88;;;13.63;100.00
45763;BME280;37512;52.408;13.356;2023-06-14T04:53:36;101301.13;;;13.65;100.00
45763;BME280;37512;52.408;13.356;2023-06-14T04:57:43;101306.25;;;13.86;100.00
45763;BME280;37512;52.408;13.356;2023-06-14T05:01:45;101298.53;;;14.02;100.00
45763;BME280;37512;52.408;13.356;2023-06-14T05:05:50;101299.41;;;14.07;100.00
45763;BME280;37512;52.408;13.356;2023-06-14T05:09:52;101304.53;;;14.01;100.00
45763;BME280;37512;52.408;13.356;2023-06-14T05:13:53;101301.78;;;14.31;100.00
45763;BME280;37512;52.408;13.356;2023-06-14T05:17:56;101305.06;;;14.37;100.00
45763;BME280;37512;52.408;13.356;2023-06-14T05:21:57;101311.34;;;14.57;100.00
45763;BME280;37512;52.408;13.356;2023-06-14T05:25:59;101314.03;;;14.80;100.00
45763;BME280;37512;52.408;13.356;2023-06-14T05:30:01;101312.06;;;14.80;100.00
45763;BME280;37512;52.408;13.356;2023-06-14T05:34:02;101306.94;;;14.86;100.00
45763;BME280;37512;52.408;13.356;2023-06-14T05:38:05;101313.72;;;15.19;100.00
45763;BME280;37512;52.408;13.356;2023-06-14T05:42:07;101325.69;;;15.53;100.00
45763;BME280;37512;52.408;13.356;2023-06-14T05:46:10;101326.56;;;15.64;100.00
45763;BME280;37512;52.408;13.356;2023-06-14T05:50:11;101332.34;;;15.79;100.00
45763;BME280;37512;52.408;13.356;2023-06-14T05:54:13;101334.38;;;15.82;100.00
45763;BME280;37512;52.408;13.356;2023-06-14T05:58:14;101335.75;;;16.02;100.00
45763;BME280;37512;52.408;13.356;2023-06-14T06:02:16;101340.88;;;15.93;100.00
45763;BME280;37512;52.408;13.356;2023-06-14T06:06:17;101329.84;;;15.70;100.00
45763;BME280;37512;52.408;13.356;2023-06-14T06:10:19;101339.59;;;15.87;100.00
45763;BME280;37512;52.408;13.356;2023-06-14T06:14:21;101333.09;;;15.76;100.00
45763;BME280;37512;52.408;13.356;2023-06-14T06:18:22;101337.38;;;16.07;100.00
45763;BME280;37512;52.408;13.356;2023-06-14T06:22:24;101339.28;;;15.96;100.00
45763;BME280;37512;52.408;13.356;2023-06-14T06:26:25;101341.75;;;16.04;100.00
45763;BME280;37512;52.408;13.356;2023-06-14T06:30:27;101338.13;;;15.97;100.00
45763;BME280;37512;52.408;13.356;2023-06-14T06:34:29;101336.84;;;15.91;100.00
45763;BME280;37512;52.408;13.356;2023-06-14T06:38:30;101341.22;;;15.88;100.00
45763;BME280;37512;52.408;13.356;2023-06-14T06:42:32;101347.63;;;15.88;100.00
45763;BME280;37512;52.408;13.356;2023-06-14T06:46:34;101342.09;;;15.96;100.00
45763;BME280;37512;52.408;13.356;2023-06-14T06:50:36;101350.47;;;15.96;100.00
45763;BME280;37512;52.408;13.356;2023-06-14T06:54:38;101352.06;;;15.93;100.00
45763;BME280;37512;52.408;13.356;2023-06-14T06:58:40;101350.31;;;16.26;100.00
45763;BME280;37512;52.408;13.356;2023-06-14T07:02:42;101354.03;;;16.44;100.00
45763;BME280;37512;52.408;13.356;2023-06-14T07:06:46;101357.00;;;16.66;100.00
45763;BME280;37512;52.408;13.356;2023-06-14T07:10:48;101363.09;;;16.79;100.00
45763;BME280;37512;52.408;13.356;2023-06-14T07:14:50;101371.09;;;16.77;100.00
45763;BME280;37512;52.408;13.356;2023-06-14T07:18:51;101376.25;;;16.71;100.00
45763;BME280;37512;52.408;13.356;2023-06-14T07:22:53;101384.09;;;17.17;100.00
45763;BME280;37512;52.408;13.356;2023-06-14T07:26:55;101387.41;;;17.44;99.54
45763;BME280;37512;52.408;13.356;2023-06-14T07:30:57;101391.09;;;17.66;99.29
45763;BME280;37512;52.408;13.356;2023-06-14T07:34:59;101393.50;;;17.71;96.37
45763;BME280;37512;52.408;13.356;2023-06-14T07:39:04;101390.69;;;17.71;97.25
45763;BME280;37512;52.408;13.356;2023-06-14T07:43:10;101389.16;;;17.88;96.56
45763;BME280;37512;52.408;13.356;2023-06-14T07:47:12;101385.50;;;17.81;97.69
45763;BME280;37512;52.408;13.356;2023-06-14T07:51:13;101387.56;;;17.84;95.52
45763;BME280;37512;52.408;13.356;2023-06-14T07:55:15;101385.56;;;17.98;95.48
45763;BME280;37512;52.408;13.356;2023-06-14T07:59:18;101382.75;;;18.09;93.82
45763;BME280;37512;52.408;13.356;2023-06-14T08:03:19;101372.31;;;18.03;94.85
45763;BME280;37512;52.408;13.356;2023-06-14T08:07:21;101370.69;;;18.27;94.53
45763;BME280;37512;52.408;13.356;2023-06-14T08:11:26;101365.88;;;18.31;92.89
45763;BME280;37512;52.408;13.356;2023-06-14T08:15:27;101370.72;;;18.23;91.97
45763;BME280;37512;52.408;13.356;2023-06-14T08:19:28;101370.72;;;18.12;94.87
45763;BME280;37512;52.408;13.356;2023-06-14T08:23:31;101372.25;;;18.71;90.85
45763;BME280;37512;52.408;13.356;2023-06-14T08:27:32;101360.66;;;18.44;91.51
45763;BME280;37512;52.408;13.356;2023-06-14T08:31:34;101378.28;;;18.73;89.66
45763;BME280;37512;52.408;13.356;2023-06-14T08:35:35;101372.28;;;18.64;89.60
45763;BME280;37512;52.408;13.356;2023-06-14T08:39:39;101375.03;;;18.92;87.01
45763;BME280;37512;52.408;13.356;2023-06-14T08:43:41;101371.00;;;18.97;86.94
45763;BME280;37512;52.408;13.356;2023-06-14T08:47:43;101369.88;;;18.51;86.75
45763;BME280;37512;52.408;13.356;2023-06-14T08:51:57;101372.16;;;19.14;82.01
45763;BME280;37512;52.408;13.356;2023-06-14T08:56:00;101379.47;;;18.90;84.21
45763;BME280;37512;52.408;13.356;2023-06-14T09:00:06;101379.81;;;19.10;81.66
45763;BME280;37512;52.408;13.356;2023-06-14T09:04:14;101378.13;;;19.23;81.67
45763;BME280;37512;52.408;13.356;2023-06-14T09:08:16;101374.63;;;19.78;78.69
45763;BME280;37512;52.408;13.356;2023-06-14T09:12:20;101375.56;;;20.17;77.86
45763;BME280;37512;52.408;13.356;2023-06-14T09:16:22;101382.50;;;20.05;75.33
45763;BME280;37512;52.408;13.356;2023-06-14T09:20:24;101379.91;;;20.25;75.25
45763;BME280;37512;52.408;13.356;2023-06-14T09:24:26;101379.63;;;20.09;73.14
45763;BME280;37512;52.408;13.356;2023-06-14T09:28:28;101392.88;;;20.15;75.40
45763;BME280;37512;52.408;13.356;2023-06-14T09:32:29;101388.53;;;20.03;73.52
45763;BME280;37512;52.408;13.356;2023-06-14T09:36:32;101386.19;;;19.95;73.94
45763;BME280;37512;52.408;13.356;2023-06-14T09:40:34;101375.88;;;19.70;72.98
45763;BME280;37512;52.408;13.356;2023-06-14T09:44:37;101381.91;;;19.76;75.64
45763;BME280;37512;52.408;13.356;2023-06-14T09:48:40;101379.00;;;20.35;74.08
45763;BME280;37512;52.408;13.356;2023-06-14T09:52:44;101378.19;;;20.80;73.01
45763;BME280;37512;52.408;13.356;2023-06-14T09:56:48;101395.16;;;20.76;71.61
45763;BME280;37512;52.408;13.356;2023-06-14T10:00:54;101392.09;;;20.98;70.74
45763;BME280;37512;52.408;13.356;2023-06-14T10:05:02;101384.56;;;20.87;71.24
45763;BME280;37512;52.408;13.356;2023-06-14T10:09:08;101381.94;;;20.70;70.21
45763;BME280;37512;52.408;13.356;2023-06-14T10:13:11;101382.09;;;20.48;70.49
45763;BME280;37512;52.408;13.356;2023-06-14T10:25:50;101378.44;;;21.27;66.46
45763;BME280;37512;52.408;13.356;2023-06-14T10:38:06;101370.81;;;21.24;63.94
45763;BME280;37512;52.408;13.356;2023-06-14T10:42:08;101373.34;;;21.15;65.79
45763;BME280;37512;52.408;13.356;2023-06-14T10:46:16;101378.22;;;20.76;66.28
45763;BME280;37512;52.408;13.356;2023-06-14T10:50:27;101373.31;;;20.84;67.14
45763;BME280;37512;52.408;13.356;2023-06-14T10:54:30;101362.72;;;21.26;68.06
45763;BME280;37512;52.408;13.356;2023-06-14T10:58:31;101362.28;;;20.97;65.01
45763;BME280;37512;52.408;13.356;2023-06-14T11:07:10;101353.91;;;21.20;67.69
45763;BME280;37512;52.408;13.356;2023-06-14T11:11:22;101353.91;;;20.89;67.31
45763;BME280;37512;52.408;13.356;2023-06-14T11:15:36;101345.66;;;21.02;66.54
45763;BME280;37512;52.408;13.356;2023-06-14T11:19:37;101343.03;;;21.19;64.83
45763;BME280;37512;52.408;13.356;2023-06-14T11:23:39;101348.38;;;21.71;61.13
45763;BME280;37512;52.408;13.356;2023-06-14T11:27:42;101338.47;;;21.86;61.01
45763;BME280;37512;52.408;13.356;2023-06-14T11:31:45;101335.50;;;21.93;59.72
45763;BME280;37512;52.408;13.356;2023-06-14T11:35:49;101337.81;;;21.75;61.39
45763;BME280;37512;52.408;13.356;2023-06-14T11:39:50;101327.41;;;21.45;60.97
45763;BME280;37512;52.408;13.356;2023-06-14T11:43:53;101324.19;;;21.70;61.80
45763;BME280;37512;52.408;13.356;2023-06-14T11:47:55;101312.16;;;21.66;62.57
45763;BME280;37512;52.408;13.356;2023-06-14T11:52:00;101323.75;;;21.99;59.33
45763;BME280;37512;52.408;13.356;2023-06-14T11:56:02;101318.63;;;22.13;57.39
45763;BME280;37512;52.408;13.356;2023-06-14T12:00:06;101309.84;;;22.31;53.70
45763;BME280;37512;52.408;13.356;2023-06-14T12:04:14;101309.28;;;22.17;55.16
45763;BME280;37512;52.408;13.356;2023-06-14T12:08:15;101305.38;;;22.10;57.03
45763;BME280;37512;52.408;13.356;2023-06-14T12:12:20;101293.56;;;23.35;52.92
45763;BME280;37512;52.408;13.356;2023-06-14T12:16:30;101303.00;;;24.14;47.42
45763;BME280;37512;52.408;13.356;2023-06-14T12:20:32;101281.19;;;24.86;44.79
45763;BME280;37512;52.408;13.356;2023-06-14T12:24:34;101294.41;;;25.95;43.24
45763;BME280;37512;52.408;13.356;2023-06-14T12:28:35;101289.97;;;25.04;42.29
45763;BME280;37512;52.408;13.356;2023-06-14T12:32:37;101280.00;;;24.41;43.10
45763;BME280;37512;52.408;13.356;2023-06-14T12:36:39;101273.63;;;25.47;41.38
45763;BME280;37512;52.408;13.356;2023-06-14T12:40:46;101273.63;;;26.20;38.39
45763;BME280;37512;52.408;13.356;2023-06-14T12:44:48;101284.84;;;27.03;36.84
45763;BME280;37512;52.408;13.356;2023-06-14T12:48:50;101279.50;;;26.61;36.94
45763;BME280;37512;52.408;13.356;2023-06-14T12:52:51;101273.63;;;27.40;36.76
45763;BME280;37512;52.408;13.356;2023-06-14T12:56:53;101270.66;;;27.52;35.72
45763;BME280;37512;52.408;13.356;2023-06-14T13:00:59;101265.56;;;27.38;35.78
45763;BME280;37512;52.408;13.356;2023-06-14T13:05:01;101264.72;;;27.69;35.15
45763;BME280;37512;52.408;13.356;2023-06-14T13:09:05;101254.34;;;27.44;35.65
45763;BME280;37512;52.408;13.356;2023-06-14T13:13:07;101255.72;;;27.98;35.87
45763;BME280;37512;52.408;13.356;2023-06-14T13:17:09;101254.50;;;28.54;34.51
45763;BME280;37512;52.408;13.356;2023-06-14T13:21:11;101252.28;;;28.12;34.72
45763;BME280;37512;52.408;13.356;2023-06-14T13:25:12;101243.69;;;28.40;33.69
45763;BME280;37512;52.408;13.356;2023-06-14T13:29:14;101243.00;;;27.71;34.80
45763;BME280;37512;52.408;13.356;2023-06-14T13:33:16;101235.75;;;27.30;35.93
45763;BME280;37512;52.408;13.356;2023-06-14T13:37:18;101226.44;;;27.39;35.30
45763;BME280;37512;52.408;13.356;2023-06-14T13:41:20;101223.94;;;27.50;36.10
45763;BME280;37512;52.408;13.356;2023-06-14T13:45:21;101227.84;;;28.30;33.97
45763;BME280;37512;52.408;13.356;2023-06-14T13:49:23;101213.41;;;28.43;33.96
45763;BME280;37512;52.408;13.356;2023-06-14T13:53:24;101211.84;;;28.14;33.59
45763;BME280;37512;52.408;13.356;2023-06-14T13:57:26;101212.41;;;27.13;34.80
45763;BME280;37512;52.408;13.356;2023-06-14T14:01:27;101209.97;;;26.49;35.78
45763;BME280;37512;52.408;13.356;2023-06-14T14:05:31;101210.50;;;26.79;35.26
45763;BME280;37512;52.408;13.356;2023-06-14T14:09:34;101199.81;;;26.61;35.67
45763;BME280;37512;52.408;13.356;2023-06-14T14:13:39;101207.91;;;26.05;37.57
45763;BME280;37512;52.408;13.356;2023-06-14T14:17:41;101211.84;;;25.25;38.08
45763;BME280;37512;52.408;13.356;2023-06-14T14:21:43;101201.56;;;24.35;39.90
45763;BME280;37512;52.408;13.356;2023-06-14T14:25:45;101196.81;;;25.12;38.70
45763;BME280;37512;52.408;13.356;2023-06-14T14:29:47;101195.78;;;24.80;38.64
45763;BME280;37512;52.408;13.356;2023-06-14T14:33:49;101188.88;;;25.33;37.14
45763;BME280;37512;52.408;13.356;2023-06-14T14:37:53;101186.13;;;25.42;37.90
45763;BME280;37512;52.408;13.356;2023-06-14T14:41:55;101195.41;;;26.03;36.83
45763;BME280;37512;52.408;13.356;2023-06-14T14:45:56;101198.78;;;26.11;35.57
45763;BME280;37512;52.408;13.356;2023-06-14T14:49:59;101201.81;;;25.34;37.02
45763;BME280;37512;52.408;13.356;2023-06-14T14:54:01;101195.84;;;24.51;39.23
45763;BME280;37512;52.408;13.356;2023-06-14T14:58:03;101190.13;;;24.38;38.73
45763;BME280;37512;52.408;13.356;2023-06-14T15:02:05;101198.00;;;24.18;37.63
45763;BME280;37512;52.408;13.356;2023-06-14T15:06:20;101186.19;;;23.90;39.06
45763;BME280;37512;52.408;13.356;2023-06-14T15:10:26;101190.00;;;23.51;39.90
45763;BME280;37512;52.408;13.356;2023-06-14T15:14:28;101192.94;;;23.64;39.67
45763;BME280;37512;52.408;13.356;2023-06-14T15:18:30;101188.84;;;23.97;39.99
45763;BME280;37512;52.408;13.356;2023-06-14T15:22:34;101183.63;;;25.05;36.64
45763;BME280;37512;52.408;13.356;2023-06-14T15:26:36;101187.16;;;24.97;36.94
45763;BME280;37512;52.408;13.356;2023-06-14T15:30:37;101197.09;;;24.21;35.88
45763;BME280;37512;52.408;13.356;2023-06-14T15:34:39;101196.47;;;23.51;38.31
45763;BME280;37512;52.408;13.356;2023-06-14T15:38:44;101189.66;;;23.32;39.44
45763;BME280;37512;52.408;13.356;2023-06-14T15:42:45;101194.78;;;23.21;39.63
45763;BME280;37512;52.408;13.356;2023-06-14T15:46:47;101194.81;;;22.85;40.76
45763;BME280;37512;52.408;13.356;2023-06-14T15:50:51;101190.09;;;22.78;40.53
45763;BME280;37512;52.408;13.356;2023-06-14T15:54:53;101193.63;;;22.46;40.75
45763;BME280;37512;52.408;13.356;2023-06-14T15:58:59;101194.72;;;22.52;41.00
45763;BME280;37512;52.408;13.356;2023-06-14T16:03:01;101187.13;;;22.49;40.43
45763;BME280;37512;52.408;13.356;2023-06-14T16:07:02;101185.88;;;22.50;42.24
45763;BME280;37512;52.408;13.356;2023-06-14T16:11:04;101190.22;;;22.34;41.77
45763;BME280;37512;52.408;13.356;2023-06-14T16:15:06;101179.84;;;22.48;42.48
45763;BME280;37512;52.408;13.356;2023-06-14T16:19:08;101180.44;;;22.39;42.94
45763;BME280;37512;52.408;13.356;2023-06-14T16:23:09;101186.22;;;22.32;42.89
45763;BME280;37512;52.408;13.356;2023-06-14T16:27:11;101192.25;;;22.54;42.70
45763;BME280;37512;52.408;13.356;2023-06-14T16:31:14;101183.56;;;22.45;43.31
45763;BME280;37512;52.408;13.356;2023-06-14T16:35:18;101187.59;;;22.44;43.29
45763;BME280;37512;52.408;13.356;2023-06-14T16:39:19;101194.38;;;22.06;42.69
45763;BME280;37512;52.408;13.356;2023-06-14T16:43:21;101195.03;;;21.94;43.06
45763;BME280;37512;52.408;13.356;2023-06-14T16:47:23;101194.72;;;21.88;42.95
45763;BME280;37512;52.408;13.356;2023-06-14T16:51:25;101204.53;;;22.04;42.73
45763;BME280;37512;52.408;13.356;2023-06-14T16:55:27;101219.00;;;21.86;42.97
45763;BME280;37512;52.408;13.356;2023-06-14T16:59:28;101209.34;;;21.60;43.72
45763;BME280;37512;52.408;13.356;2023-06-14T17:03:31;101216.59;;;21.61;43.05
45763;BME280;37512;52.408;13.356;2023-06-14T17:07:33;101226.84;;;21.75;44.12
45763;BME280;37512;52.408;13.356;2023-06-14T17:11:35;101224.28;;;21.84;43.91
45763;BME280;37512;52.408;13.356;2023-06-14T17:15:36;101220.28;;;21.81;44.15
45763;BME280;37512;52.408;13.356;2023-06-14T17:19:38;101229.56;;;21.82;44.16
45763;BME280;37512;52.408;13.356;2023-06-14T17:23:39;101229.97;;;21.80;44.70
45763;BME280;37512;52.408;13.356;2023-06-14T17:27:41;101229.97;;;21.57;44.81
45763;BME280;37512;52.408;13.356;2023-06-14T17:31:42;101231.88;;;21.63;45.25
45763;BME280;37512;52.408;13.356;2023-06-14T17:35:44;101229.56;;;21.58;44.90
45763;BME280;37512;52.408;13.356;2023-06-14T17:39:46;101232.81;;;21.57;45.56
45763;BME280;37512;52.408;13.356;2023-06-14T17:43:47;101239.13;;;21.41;46.10
45763;BME280;37512;52.408;13.356;2023-06-14T17:47:49;101225.94;;;21.30;46.01
45763;BME280;37512;52.408;13.356;2023-06-14T17:51:52;101238.41;;;21.33;45.42
45763;BME280;37512;52.408;13.356;2023-06-14T17:55:54;101242.28;;;21.16;46.64
45763;BME280;37512;52.408;13.356;2023-06-14T17:59:55;101247.38;;;20.97;47.67
45763;BME280;37512;52.408;13.356;2023-06-14T18:03:57;101242.63;;;21.21;46.88
45763;BME280;37512;52.408;13.356;2023-06-14T18:07:59;101250.59;;;20.99;46.66
45763;BME280;37512;52.408;13.356;2023-06-14T18:12:01;101241.56;;;20.81;47.74
45763;BME280;37512;52.408;13.356;2023-06-14T18:16:02;101241.47;;;20.88;48.38
45763;BME280;37512;52.408;13.356;2023-06-14T18:20:04;101238.63;;;20.92;48.60
45763;BME280;37512;52.408;13.356;2023-06-14T18:24:06;101253.38;;;20.72;48.25
45763;BME280;37512;52.408;13.356;2023-06-14T18:28:08;101250.78;;;20.85;48.64
45763;BME280;37512;52.408;13.356;2023-06-14T18:32:09;101240.22;;;20.89;48.14
45763;BME280;37512;52.408;13.356;2023-06-14T18:36:11;101242.22;;;20.61;49.31
45763;BME280;37512;52.408;13.356;2023-06-14T18:40:13;101243.88;;;20.55;50.50
45763;BME280;37512;52.408;13.356;2023-06-14T18:44:15;101241.38;;;20.64;50.35
45763;BME280;37512;52.408;13.356;2023-06-14T18:48:16;101243.88;;;20.55;50.40
45763;BME280;37512;52.408;13.356;2023-06-14T18:52:18;101240.81;;;20.42;51.31
45763;BME280;37512;52.408;13.356;2023-06-14T18:56:20;101246.13;;;20.37;51.84
45763;BME280;37512;52.408;13.356;2023-06-14T19:00:21;101237.13;;;20.45;51.68
45763;BME280;37512;52.408;13.356;2023-06-14T19:04:23;101240.09;;;20.35;51.51
45763;BME280;37512;52.408;13.356;2023-06-14T19:08:25;101244.03;;;20.41;51.30
45763;BME280;37512;52.408;13.356;2023-06-14T19:12:26;101249.22;;;20.46;50.45
45763;BME280;37512;52.408;13.356;2023-06-14T19:16:28;101244.78;;;20.48;50.43
45763;BME280;37512;52.408;13.356;2023-06-14T19:20:30;101246.44;;;20.42;50.88
45763;BME280;37512;52.408;13.356;2023-06-14T19:24:31;101245.72;;;20.35;51.22
45763;BME280;37512;52.408;13.356;2023-06-14T19:28:34;101247.63;;;20.45;51.34
45763;BME280;37512;52.408;13.356;2023-06-14T19:32:35;101251.06;;;20.25;51.32
45763;BME280;37512;52.408;13.356;2023-06-14T19:36:37;101254.72;;;20.22;52.88
45763;BME280;37512;52.408;13.356;2023-06-14T19:40:39;101257.81;;;20.32;53.11
45763;BME280;37512;52.408;13.356;2023-06-14T19:44:41;101258.41;;;20.16;53.69
45763;BME280;37512;52.408;13.356;2023-06-14T19:48:42;101257.88;;;20.28;54.13
45763;BME280;37512;52.408;13.356;2023-06-14T19:52:44;101260.88;;;20.10;54.35
45763;BME280;37512;52.408;13.356;2023-06-14T19:56:45;101263.72;;;20.06;53.77
45763;BME280;37512;52.408;13.356;2023-06-14T20:00:47;101261.66;;;20.14;55.30
45763;BME280;37512;52.408;13.356;2023-06-14T20:04:49;101260.81;;;20.17;54.04
45763;BME280;37512;52.408;13.356;2023-06-14T20:08:50;101263.72;;;20.06;54.64
45763;BME280;37512;52.408;13.356;2023-06-14T20:12:52;101260.19;;;19.99;55.39
45763;BME280;37512;52.408;13.356;2023-06-14T20:16:54;101270.97;;;20.08;56.01
45763;BME280;37512;52.408;13.356;2023-06-14T20:20:56;101274.34;;;19.92;56.26
45763;BME280;37512;52.408;13.356;2023-06-14T20:24:57;101272.72;;;19.94;56.29
45763;BME280;37512;52.408;13.356;2023-06-14T20:28:59;101278.03;;;19.81;57.09
45763;BME280;37512;52.408;13.356;2023-06-14T20:33:01;101270.06;;;19.73;56.59
45763;BME280;37512;52.408;13.356;2023-06-14T20:37:02;101268.91;;;19.63;56.71
45763;BME280;37512;52.408;13.356;2023-06-14T20:41:04;101271.63;;;19.77;57.65
45763;BME280;37512;52.408;13.356;2023-06-14T20:45:06;101273.81;;;20.04;56.58
45763;BME280;37512;52.408;13.356;2023-06-14T20:49:09;101276.25;;;20.02;57.18
45763;BME280;37512;52.408;13.356;2023-06-14T20:53:11;101271.97;;;19.87;56.82
45763;BME280;37512;52.408;13.356;2023-06-14T20:57:12;101271.59;;;19.81;57.38
45763;BME280;37512;52.408;13.356;2023-06-14T21:01:19;101264.47;;;19.69;57.78
45763;BME280;37512;52.408;13.356;2023-06-14T21:05:21;101272.94;;;19.62;58.17